Time;durP1;ratioP1;P1;durP2;ratioP2;P2;SDS_P1;SDS_P2;PMS_P1;PMS_P2;Temp;Humidity;BMP_temperature;BMP_pressure;BME280_temperature;BME280_humidity;BME280_pressure;Samples;Min_cycle;Max_cycle;Signal;HPM_P1;HPM_P2
2023/11/15 04:15:28;;;;;;;14.18;2.00;;;12.20;99.90;;;;;;10573884;27;20815;-32
2023/11/15 04:20:30;;;;;;;21.30;2.72;;;12.70;99.90;;;;;;10590087;28;20039;-30
2023/11/15 04:25:32;;;;;;;22.10;2.10;;;12.10;99.90;;;;;;10590345;27;20043;-33
2023/11/15 04:30:35;;;;;;;26.48;3.13;;;12.50;99.90;;;;;;10590298;27;20043;-38
2023/11/15 04:35:37;;;;;;;19.13;3.28;;;12.50;99.90;;;;;;10588024;27;20426;-32
2023/11/15 04:40:39;;;;;;;20.92;2.63;;;12.10;99.90;;;;;;10588858;27;20450;-33
2023/11/15 04:45:42;;;;;;;15.05;3.25;;;12.40;99.90;;;;;;10589701;28;20075;-37
2023/11/15 04:50:44;;;;;;;14.40;1.90;;;12.50;99.90;;;;;;10589794;27;20042;-32
2023/11/15 04:55:45;;;;;;;15.90;3.63;;;12.20;99.90;;;;;;10589230;28;20489;-32
2023/11/15 05:00:49;;;;;;;9.60;1.90;;;12.40;99.90;;;;;;10589676;27;20035;-29
2023/11/15 05:05:50;;;;;;;12.40;1.83;;;12.70;99.90;;;;;;10590686;27;20104;-33
2023/11/15 05:10:52;;;;;;;14.85;2.10;;;12.10;99.90;;;;;;10587766;27;20054;-34
2023/11/15 05:15:55;;;;;;;18.75;2.80;;;12.20;99.90;;;;;;10587339;27;20084;-34
2023/11/15 05:20:57;;;;;;;16.98;2.50;;;12.10;99.90;;;;;;10584843;27;20221;-33
2023/11/15 05:25:59;;;;;;;17.80;3.07;;;12.30;99.90;;;;;;10561365;27;20048;-31
2023/11/15 05:31:03;;;;;;;11.23;2.35;;;12.20;99.90;;;;;;10558383;28;20055;-31
2023/11/15 05:36:05;;;;;;;10.70;2.15;;;12.40;99.90;;;;;;10557229;28;20096;-35
2023/11/15 05:41:07;;;;;;;20.90;2.80;;;12.20;99.90;;;;;;10561199;28;20089;-31
2023/11/15 05:46:10;;;;;;;13.55;2.33;;;12.20;99.90;;;;;;10560181;28;20067;-32
2023/11/15 05:51:12;;;;;;;;;;;12.20;99.90;;;;;;10559654;28;20052;-31
2023/11/15 05:56:14;;;;;;;16.73;2.35;;;12.30;99.90;;;;;;10558347;28;19979;-32
2023/11/15 06:01:17;;;;;;;19.40;2.33;;;12.20;99.90;;;;;;10558825;28;20112;-35
2023/11/15 06:06:20;;;;;;;19.85;2.78;;;12.40;99.90;;;;;;10555086;28;20137;-36
2023/11/15 06:11:22;;;;;;;11.77;2.25;;;12.30;99.90;;;;;;10543943;28;20057;-45
2023/11/15 06:16:25;;;;;;;21.98;2.45;;;12.30;99.90;;;;;;10559644;28;20049;-35
2023/11/15 06:21:27;;;;;;;21.55;3.28;;;12.40;99.90;;;;;;10556416;28;20047;-38
2023/11/15 06:26:29;;;;;;;20.05;4.68;;;12.20;99.90;;;;;;10557547;28;20151;-34
2023/11/15 06:31:36;;;;;;;26.00;3.22;;;12.30;99.90;;;;;;10551387;28;20046;-35
2023/11/15 06:36:39;;;;;;;11.98;2.35;;;12.20;99.90;;;;;;10554158;28;20047;-31
2023/11/15 06:41:41;;;;;;;17.45;2.13;;;12.20;99.90;;;;;;10551887;28;20455;-33
2023/11/15 06:46:44;;;;;;;14.67;2.20;;;12.50;99.90;;;;;;10549348;28;20058;-39
2023/11/15 06:51:51;;;;;;;15.57;2.45;;;12.60;99.90;;;;;;10552803;28;20513;-44
2023/11/15 06:56:53;;;;;;;14.65;2.13;;;12.30;99.90;;;;;;10545819;28;20458;-38
2023/11/15 07:01:59;;;;;;;17.20;3.03;;;12.70;99.90;;;;;;10537809;28;20036;-34
2023/11/15 07:07:02;;;;;;;26.55;2.40;;;12.50;99.90;;;;;;10551922;28;20541;-34
2023/11/15 07:12:05;;;;;;;;;;;12.20;99.90;;;;;;10551673;28;20116;-34
2023/11/15 07:17:08;;;;;;;16.92;3.10;;;12.20;99.90;;;;;;10552671;28;19965;-46
2023/11/15 07:22:10;;;;;;;12.63;1.90;;;12.20;99.90;;;;;;10555147;28;20062;-43
2023/11/15 07:27:11;;;;;;;24.92;3.40;;;12.50;99.90;;;;;;10550294;28;20040;-36
2023/11/15 07:32:17;;;;;;;22.80;2.63;;;12.20;99.90;;;;;;10549957;28;20205;-33
2023/11/15 07:37:18;;;;;;;14.35;2.47;;;12.30;99.90;;;;;;10554959;28;20432;-34
2023/11/15 07:42:20;;;;;;;23.67;2.50;;;12.60;99.90;;;;;;10551195;28;20126;-35
2023/11/15 07:47:25;;;;;;;31.05;2.85;;;12.40;99.90;;;;;;10552023;28;20078;-33
2023/11/15 07:52:27;;;;;;;11.18;2.05;;;12.40;99.90;;;;;;10553623;28;20043;-40
2023/11/15 07:57:29;;;;;;;27.33;4.10;;;12.40;99.90;;;;;;10550895;28;20120;-36
2023/11/15 08:02:32;;;;;;;15.88;2.60;;;12.90;99.90;;;;;;10552262;28;20096;-28
2023/11/15 08:07:36;;;;;;;23.38;2.55;;;12.50;99.90;;;;;;10549120;28;20039;-33
2023/11/15 08:12:37;;;;;;;21.33;2.78;;;12.80;99.90;;;;;;10550788;28;20043;-33
2023/11/15 08:17:41;;;;;;;16.08;1.80;;;12.40;99.90;;;;;;10551507;28;20412;-34
2023/11/15 08:22:42;;;;;;;18.92;2.08;;;12.80;99.90;;;;;;10550973;28;20046;-30
2023/11/15 08:27:44;;;;;;;12.82;2.30;;;13.00;99.90;;;;;;10550950;28;20177;-32
2023/11/15 08:32:48;;;;;;;29.35;3.70;;;12.60;99.90;;;;;;10551268;28;20077;-30
2023/11/15 08:37:52;;;;;;;18.75;2.78;;;12.40;99.90;;;;;;10550091;28;20044;-31
2023/11/15 08:42:55;;;;;;;19.38;2.47;;;12.50;99.90;;;;;;10551229;28;20043;-36
2023/11/15 08:47:58;;;;;;;30.67;2.63;;;12.80;99.90;;;;;;10551636;28;20166;-47
2023/11/15 08:52:59;;;;;;;19.60;2.63;;;12.90;99.90;;;;;;10549507;28;20589;-36
2023/11/15 08:58:01;;;;;;;23.02;3.90;;;12.70;99.90;;;;;;10553344;28;20798;-33
2023/11/15 09:03:08;;;;;;;17.20;2.88;;;12.70;99.90;;;;;;10559211;28;20052;-35
2023/11/15 09:08:10;;;;;;;19.73;3.30;;;12.80;99.90;;;;;;10560251;28;20036;-37
2023/11/15 09:13:13;;;;;;;28.43;5.23;;;12.80;99.90;;;;;;10557304;27;20055;-36
2023/11/15 09:18:19;;;;;;;21.90;3.67;;;12.80;99.90;;;;;;10558308;28;20045;-36
2023/11/15 09:23:22;;;;;;;20.55;2.92;;;12.90;99.90;;;;;;10559670;28;20050;-35
2023/11/15 09:28:24;;;;;;;13.95;2.70;;;12.70;99.90;;;;;;10556625;28;20044;-28
2023/11/15 09:33:27;;;;;;;19.98;2.50;;;12.60;99.90;;;;;;10557574;28;20135;-31
2023/11/15 09:38:29;;;;;;;20.05;2.50;;;12.90;99.90;;;;;;10558575;28;20071;-37
2023/11/15 09:43:32;;;;;;;14.73;2.88;;;13.00;99.90;;;;;;10557611;28;20043;-32
2023/11/15 09:48:38;;;;;;;10.98;2.00;;;12.90;99.90;;;;;;10556173;28;20385;-32
2023/11/15 09:53:40;;;;;;;25.15;4.10;;;13.20;99.90;;;;;;10558850;28;20055;-31
2023/11/15 09:58:41;;;;;;;18.48;2.40;;;13.10;99.90;;;;;;10558364;28;20134;-41
2023/11/15 10:03:44;;;;;;;15.35;2.65;;;12.90;99.90;;;;;;10557821;28;20047;-40
2023/11/15 10:08:50;;;;;;;;;;;13.00;99.90;;;;;;10558932;28;20043;-37
2023/11/15 10:14:09;;;;;;;10.82;2.15;;;12.70;99.90;;;;;;10555366;28;19927;-36
2023/11/15 10:19:27;;;;;;;16.77;2.17;;;12.90;99.90;;;;;;10558399;28;20523;-36
2023/11/15 10:24:30;;;;;;;13.50;1.83;;;12.80;99.90;;;;;;10556392;28;20067;-42
2023/11/15 10:29:32;;;;;;;17.45;2.15;;;12.60;99.90;;;;;;10554944;28;20071;-31
2023/11/15 10:34:48;;;;;;;25.97;3.03;;;12.80;99.90;;;;;;10556164;28;20052;-36
2023/11/15 10:39:50;;;;;;;26.95;3.35;;;12.40;99.90;;;;;;10555013;28;20116;-35
2023/11/15 10:44:58;;;;;;;13.60;1.85;;;12.60;99.90;;;;;;10557005;28;20467;-33
2023/11/15 10:50:08;;;;;;;15.75;1.80;;;13.00;99.90;;;;;;10556464;28;20035;-48
2023/11/15 10:55:12;;;;;;;22.00;2.33;;;12.80;99.90;;;;;;10555651;28;20041;-34
2023/11/15 11:00:17;;;;;;;12.05;2.50;;;12.90;99.90;;;;;;10556712;28;20035;-47
2023/11/15 11:05:32;;;;;;;22.10;2.30;;;13.10;99.90;;;;;;10554199;28;20047;-33
2023/11/15 11:10:38;;;;;;;16.40;2.47;;;13.30;99.90;;;;;;10553477;28;20035;-34
2023/11/15 11:15:41;;;;;;;17.35;1.63;;;12.90;99.90;;;;;;10554654;28;20409;-32
2023/11/15 11:20:59;;;;;;;23.50;2.35;;;12.80;99.90;;;;;;10555004;28;20083;-36
2023/11/15 11:26:36;;;;;;;13.05;1.88;;;12.70;99.90;;;;;;10554482;28;20035;-35
2023/11/15 11:31:38;;;;;;;12.80;1.67;;;12.80;99.90;;;;;;10552572;28;20533;-30
2023/11/15 11:36:50;;;;;;;13.65;1.80;;;12.70;99.90;;;;;;10556377;28;20124;-31
2023/11/15 11:41:54;;;;;;;17.67;2.65;;;13.10;99.90;;;;;;10551532;28;20814;-40
2023/11/15 11:47:03;;;;;;;13.55;1.73;;;13.10;99.90;;;;;;10553117;28;20044;-33
2023/11/15 11:52:06;;;;;;;25.90;3.38;;;12.80;99.90;;;;;;10552066;28;20089;-36
2023/11/15 11:57:08;;;;;;;16.90;2.38;;;13.00;99.90;;;;;;10552994;28;20093;-32
2023/11/15 12:02:12;;;;;;;25.20;3.47;;;12.80;99.90;;;;;;10553046;28;20063;-39
2023/11/15 12:07:15;;;;;;;14.52;2.13;;;13.10;99.90;;;;;;10551825;28;20456;-31
2023/11/15 12:12:18;;;;;;;13.95;2.05;;;12.80;99.90;;;;;;10552507;28;20075;-44
2023/11/15 12:17:21;;;;;;;20.38;2.33;;;12.60;99.90;;;;;;10552094;28;20075;-31
2023/11/15 12:22:24;;;;;;;19.70;2.17;;;12.90;99.90;;;;;;10554221;28;20054;-37
2023/11/15 12:27:26;;;;;;;14.15;1.83;;;13.20;99.90;;;;;;10552830;28;20608;-43
2023/11/15 12:32:29;;;;;;;13.93;2.10;;;13.40;99.90;;;;;;10552551;28;20124;-32
2023/11/15 12:37:32;;;;;;;170.13;16.23;;;13.20;99.90;;;;;;10559650;28;20035;-34
2023/11/15 12:42:36;;;;;;;17.30;2.03;;;13.60;99.90;;;;;;10560155;27;20042;-36
2023/11/15 12:47:38;;;;;;;16.75;2.80;;;13.30;99.90;;;;;;10562072;28;20051;-30
2023/11/15 12:52:41;;;;;;;19.87;3.90;;;13.40;99.90;;;;;;10558320;28;20449;-37
2023/11/15 12:57:52;;;;;;;11.68;1.73;;;13.30;99.90;;;;;;10557026;28;20127;-35
2023/11/15 13:02:54;;;;;;;18.75;2.75;;;13.20;99.90;;;;;;10559257;28;20067;-38
2023/11/15 13:07:57;;;;;;;13.63;2.30;;;13.30;99.90;;;;;;10561891;27;20081;-35
2023/11/15 13:13:00;;;;;;;9.63;1.92;;;13.00;99.90;;;;;;10556805;27;20067;-31
2023/11/15 13:18:01;;;;;;;19.17;2.50;;;13.00;99.90;;;;;;10559494;28;20047;-34
2023/11/15 13:23:05;;;;;;;10.07;1.95;;;13.40;99.90;;;;;;10558012;28;20193;-40
2023/11/15 13:28:09;;;;;;;29.92;2.85;;;13.00;99.90;;;;;;10558216;28;20055;-32
2023/11/15 13:33:10;;;;;;;10.00;1.63;;;12.70;99.90;;;;;;10557418;28;20062;-30
2023/11/15 13:38:14;;;;;;;19.52;2.72;;;13.10;99.90;;;;;;10558114;28;20043;-36
2023/11/15 13:43:16;;;;;;;17.58;2.65;;;13.30;99.90;;;;;;10560293;27;20079;-32
2023/11/15 13:48:18;;;;;;;13.63;2.05;;;13.60;99.90;;;;;;10558161;28;20079;-33
2023/11/15 13:53:21;;;;;;;12.77;2.10;;;13.60;99.90;;;;;;10558995;28;20039;-34
2023/11/15 13:58:23;;;;;;;16.27;2.35;;;14.30;99.90;;;;;;10554831;28;20032;-36
2023/11/15 14:03:26;;;;;;;14.23;2.50;;;14.00;99.90;;;;;;10559179;28;20092;-32
2023/11/15 14:08:34;;;;;;;25.48;2.50;;;14.00;99.40;;;;;;10558750;28;20039;-35
2023/11/15 14:13:36;;;;;;;13.38;1.50;;;14.10;99.80;;;;;;10556016;28;20365;-33
2023/11/15 14:18:38;;;;;;;19.93;2.37;;;14.60;99.90;;;;;;10555739;28;20043;-31
2023/11/15 14:23:41;;;;;;;13.45;1.80;;;13.80;98.60;;;;;;10553107;28;20145;-30
2023/11/15 14:28:43;;;;;;;18.27;1.98;;;14.10;99.70;;;;;;10556258;28;20138;-36
2023/11/15 14:33:44;;;;;;;11.60;2.00;;;13.80;99.90;;;;;;10555787;28;20699;-32
2023/11/15 14:38:48;;;;;;;16.65;2.10;;;13.60;99.90;;;;;;10556556;28;20035;-37
2023/11/15 14:43:49;;;;;;;18.02;3.20;;;13.30;99.90;;;;;;10555621;28;20039;-41
2023/11/15 14:48:52;;;;;;;16.55;2.03;;;13.20;99.90;;;;;;10557999;28;20040;-33
2023/11/15 14:53:56;;;;;;;14.52;2.83;;;12.70;99.90;;;;;;10555488;28;20058;-31
2023/11/15 14:58:58;;;;;;;11.55;1.67;;;13.50;99.90;;;;;;10551955;28;20492;-43
2023/11/15 15:04:00;;;;;;;10.13;1.63;;;13.70;99.90;;;;;;10544361;28;20062;-50
2023/11/15 15:09:04;;;;;;;12.55;2.25;;;13.20;99.90;;;;;;10550175;28;20089;-37
2023/11/15 15:14:06;;;;;;;12.95;1.88;;;13.20;99.90;;;;;;10553147;27;20044;-35
2023/11/15 15:19:09;;;;;;;10.07;1.63;;;12.80;99.90;;;;;;10552971;28;20061;-50
2023/11/15 15:24:12;;;;;;;13.17;2.47;;;13.20;99.90;;;;;;10551890;28;20054;-38
2023/11/15 15:29:14;;;;;;;11.20;1.70;;;12.80;99.90;;;;;;10550990;28;20201;-44
2023/11/15 15:34:16;;;;;;;18.00;1.77;;;13.00;99.90;;;;;;10546983;28;20130;-29
2023/11/15 15:39:20;;;;;;;22.13;2.42;;;13.20;99.90;;;;;;10545227;28;20040;-31
2023/11/15 15:44:22;;;;;;;19.00;1.95;;;12.60;99.90;;;;;;10544918;28;20096;-34
2023/11/15 15:49:25;;;;;;;21.73;3.05;;;12.90;99.90;;;;;;10552669;28;20039;-43
2023/11/15 15:54:29;;;;;;;15.27;2.22;;;12.70;99.90;;;;;;10545467;27;20156;-36
2023/11/15 15:59:30;;;;;;;;;;;12.80;99.90;;;;;;10552504;28;20193;-41
2023/11/15 16:04:32;;;;;;;13.38;2.22;;;12.60;99.90;;;;;;10549126;28;19998;-34
2023/11/15 16:09:35;;;;;;;14.10;2.47;;;12.60;99.90;;;;;;10547762;28;20043;-38
2023/11/15 16:14:37;;;;;;;21.98;2.53;;;12.50;99.90;;;;;;10543589;28;20083;-33
2023/11/15 16:19:39;;;;;;;16.13;2.03;;;12.40;99.90;;;;;;10544809;28;20153;-37
2023/11/15 16:24:43;;;;;;;13.50;2.22;;;12.40;99.90;;;;;;10549165;28;20056;-34
2023/11/15 16:29:46;;;;;;;24.48;2.63;;;12.80;99.90;;;;;;10550835;28;20051;-35
2023/11/15 16:34:48;;;;;;;13.43;2.35;;;12.60;99.90;;;;;;10550143;28;20067;-31
2023/11/15 16:39:52;;;;;;;17.08;2.20;;;12.30;99.90;;;;;;10544710;28;20100;-38
2023/11/15 16:44:54;;;;;;;15.32;2.22;;;12.50;99.90;;;;;;10548080;28;20150;-35
2023/11/15 16:49:57;;;;;;;11.93;1.60;;;12.50;99.90;;;;;;10547176;28;20577;-38
2023/11/15 16:55:00;;;;;;;16.33;2.35;;;12.80;99.90;;;;;;10549271;28;20058;-30
2023/11/15 17:00:05;;;;;;;22.08;2.70;;;12.30;99.90;;;;;;10551556;28;20580;-32
2023/11/15 17:05:07;;;;;;;6.70;1.42;;;12.40;99.90;;;;;;10551229;28;20043;-35
2023/11/15 17:10:10;;;;;;;12.52;2.22;;;12.60;99.90;;;;;;10550279;28;20130;-36
2023/11/15 17:15:12;;;;;;;21.83;2.03;;;12.10;99.90;;;;;;10550275;28;20664;-52
2023/11/15 17:20:18;;;;;;;26.40;2.85;;;12.40;99.90;;;;;;10550562;28;20039;-37
2023/11/15 17:25:21;;;;;;;17.27;2.33;;;12.30;99.90;;;;;;10555545;28;20138;-28
2023/11/15 17:30:22;;;;;;;;;;;12.20;99.90;;;;;;10555423;28;20127;-32
2023/11/15 17:35:25;;;;;;;9.38;1.65;;;12.20;99.90;;;;;;10558426;27;19920;-36
2023/11/15 17:40:30;;;;;;;7.85;1.77;;;13.30;99.90;;;;;;10556732;28;20068;-35
2023/11/15 17:45:32;;;;;;;23.85;2.92;;;12.40;99.90;;;;;;10552801;28;20755;-35
2023/11/15 17:50:34;;;;;;;12.43;2.42;;;12.30;99.90;;;;;;10552682;27;20035;-40
2023/11/15 17:55:37;;;;;;;7.80;1.95;;;13.10;99.90;;;;;;10560418;27;20151;-35
2023/11/15 18:00:40;;;;;;;15.45;2.15;;;12.40;99.90;;;;;;10557533;28;20498;-30
2023/11/15 18:05:42;;;;;;;7.65;1.58;;;12.20;99.90;;;;;;10554528;28;20044;-40
2023/11/15 18:10:45;;;;;;;10.07;2.13;;;12.10;99.90;;;;;;10556438;28;20059;-45
2023/11/15 18:15:46;;;;;;;13.20;1.83;;;12.00;99.90;;;;;;10553663;28;20381;-43
2023/11/15 18:20:50;;;;;;;23.75;2.72;;;11.90;99.90;;;;;;10554466;28;20883;-35
2023/11/15 18:25:53;;;;;;;15.57;2.00;;;11.70;99.90;;;;;;10556651;28;20055;-38
2023/11/15 18:30:55;;;;;;;12.10;1.85;;;11.80;99.90;;;;;;10552372;28;20036;-39
2023/11/15 18:35:57;;;;;;;11.73;2.47;;;12.10;99.90;;;;;;10555119;28;20044;-40
2023/11/15 18:41:00;;;;;;;13.15;2.75;;;11.90;99.90;;;;;;10547920;28;20035;-46
2023/11/15 18:46:03;;;;;;;18.63;2.70;;;11.90;99.90;;;;;;10550498;28;20051;-36
2023/11/15 18:51:05;;;;;;;14.27;2.00;;;12.20;99.90;;;;;;10552913;28;20048;-36
2023/11/15 18:56:09;;;;;;;12.07;1.80;;;12.10;99.90;;;;;;10552301;28;20061;-33
2023/11/15 19:01:10;;;;;;;14.90;2.22;;;12.60;99.90;;;;;;10548919;28;20411;-36
2023/11/15 19:06:12;;;;;;;13.57;2.22;;;12.60;99.90;;;;;;10551539;28;20134;-32
2023/11/15 19:11:15;;;;;;;10.23;1.88;;;12.10;99.90;;;;;;10551238;27;20040;-35
2023/11/15 19:16:18;;;;;;;14.70;2.70;;;12.40;99.90;;;;;;10550261;28;20126;-35
2023/11/15 19:21:21;;;;;;;8.45;2.53;;;12.90;99.90;;;;;;10547842;28;20051;-33
2023/11/15 19:26:24;;;;;;;12.68;2.35;;;12.60;99.90;;;;;;10551577;28;20039;-37
2023/11/15 19:31:26;;;;;;;10.38;2.80;;;12.60;99.90;;;;;;10552139;28;20043;-33
2023/11/15 19:36:28;;;;;;;12.38;3.58;;;12.50;99.90;;;;;;10549989;28;20075;-35
2023/11/15 19:41:31;;;;;;;22.38;4.07;;;12.60;99.90;;;;;;10548300;28;20089;-34
2023/11/15 19:46:33;;;;;;;22.67;3.97;;;12.50;99.90;;;;;;10548679;28;20050;-34
2023/11/15 19:51:34;;;;;;;13.40;2.72;;;12.70;99.90;;;;;;10551337;28;20381;-38
2023/11/15 19:56:38;;;;;;;11.85;3.10;;;12.30;99.90;;;;;;10551069;28;20087;-38
2023/11/15 20:01:39;;;;;;;12.02;3.10;;;12.10;99.90;;;;;;10546520;28;20054;-40
2023/11/15 20:06:41;;;;;;;18.70;4.25;;;12.30;99.90;;;;;;10545196;28;20089;-32
2023/11/15 20:11:47;;;;;;;11.80;2.38;;;12.50;99.90;;;;;;10549905;28;20058;-41
2023/11/15 20:16:50;;;;;;;17.88;2.55;;;12.10;99.90;;;;;;10543696;28;20051;-36
2023/11/15 20:21:52;;;;;;;14.55;3.60;;;12.20;99.90;;;;;;10545133;28;20047;-36
2023/11/15 20:26:56;;;;;;;19.30;2.35;;;12.40;99.90;;;;;;10548166;28;20120;-32
2023/11/15 20:31:58;;;;;;;18.95;3.22;;;12.00;99.90;;;;;;10549696;28;20043;-31
2023/11/15 20:37:00;;;;;;;20.73;1.98;;;12.10;99.90;;;;;;10549445;28;20126;-37
2023/11/15 20:42:04;;;;;;;15.45;2.30;;;12.00;99.90;;;;;;10549036;28;20039;-41
2023/11/15 20:47:06;;;;;;;19.02;2.13;;;12.30;99.90;;;;;;10543574;28;20728;-37
2023/11/15 20:52:10;;;;;;;7.05;1.92;;;11.90;99.90;;;;;;10548370;28;20059;-36
2023/11/15 20:57:13;;;;;;;11.80;1.98;;;12.10;99.90;;;;;;10549211;28;20064;-34
2023/11/15 21:02:15;;;;;;;13.38;1.67;;;11.80;99.90;;;;;;10556064;28;20127;-33
2023/11/15 21:07:16;;;;;;;11.63;1.60;;;12.20;99.90;;;;;;10559230;27;20044;-38
2023/11/15 21:12:20;;;;;;;8.38;1.98;;;12.10;99.90;;;;;;10553700;27;20067;-44
2023/11/15 21:17:22;;;;;;;20.13;3.10;;;12.60;99.90;;;;;;10552552;28;20184;-38
2023/11/15 21:22:24;;;;;;;20.90;1.85;;;12.20;99.90;;;;;;10557188;27;20075;-40
2023/11/15 21:27:27;;;;;;;6.95;1.90;;;12.00;99.90;;;;;;10558745;28;20122;-32
2023/11/15 21:32:30;;;;;;;15.60;2.33;;;12.10;99.90;;;;;;10557086;28;20049;-34
2023/11/15 21:37:32;;;;;;;11.00;2.42;;;11.90;99.90;;;;;;10555451;27;20404;-34
2023/11/15 21:42:35;;;;;;;13.88;2.63;;;12.20;99.90;;;;;;10551933;28;20067;-35
2023/11/15 21:47:37;;;;;;;15.65;2.20;;;11.80;99.90;;;;;;10556451;28;20044;-37
2023/11/15 21:52:39;;;;;;;15.93;1.70;;;12.50;99.90;;;;;;10557210;27;20039;-37
2023/11/15 21:57:42;;;;;;;11.35;2.13;;;12.00;99.90;;;;;;10556885;27;20213;-35
2023/11/15 22:02:44;;;;;;;16.13;2.30;;;12.30;99.90;;;;;;10557230;28;20419;-41
2023/11/15 22:07:46;;;;;;;13.07;1.92;;;12.00;99.90;;;;;;10556650;28;20036;-32
2023/11/15 22:12:50;;;;;;;14.83;1.73;;;12.20;99.90;;;;;;10555841;27;20040;-33
2023/11/15 22:17:52;;;;;;;18.95;2.38;;;11.80;99.90;;;;;;10559525;28;20045;-31
2023/11/15 22:22:55;;;;;;;11.90;2.05;;;12.30;99.90;;;;;;10556616;28;20426;-34
2023/11/15 22:27:58;;;;;;;9.35;1.70;;;12.30;99.90;;;;;;10556533;28;20058;-34
2023/11/15 22:33:00;;;;;;;5.88;1.65;;;12.50;99.90;;;;;;10551974;28;20089;-36
2023/11/15 22:38:02;;;;;;;8.05;2.05;;;12.60;99.90;;;;;;10555264;27;20058;-38
2023/11/15 22:43:05;;;;;;;10.27;1.70;;;12.60;99.90;;;;;;10548589;28;20047;-34
2023/11/15 22:48:07;;;;;;;12.38;2.15;;;11.90;99.90;;;;;;10539941;27;20396;-38
2023/11/15 22:53:09;;;;;;;11.90;1.48;;;11.90;99.90;;;;;;10552246;28;20468;-34
2023/11/15 22:58:12;;;;;;;5.85;1.08;;;11.90;99.90;;;;;;10551627;28;20473;-33
2023/11/15 23:03:14;;;;;;;10.57;1.75;;;12.40;99.90;;;;;;10552507;28;20484;-31
2023/11/15 23:08:15;;;;;;;16.92;1.80;;;12.00;99.90;;;;;;10552139;28;20388;-32
2023/11/15 23:13:19;;;;;;;6.15;1.88;;;11.80;99.90;;;;;;10552555;27;20075;-32
2023/11/15 23:18:21;;;;;;;7.30;1.42;;;12.20;99.90;;;;;;10552425;27;20594;-37
2023/11/15 23:23:22;;;;;;;9.57;1.45;;;12.00;99.90;;;;;;10554267;28;20176;-44
2023/11/15 23:28:26;;;;;;;13.63;1.83;;;11.30;99.90;;;;;;10552145;28;20043;-37
2023/11/15 23:33:28;;;;;;;9.07;1.58;;;12.30;99.90;;;;;;10549753;28;20115;-33
2023/11/15 23:38:30;;;;;;;5.07;2.30;;;12.40;99.90;;;;;;10550147;28;20472;-30
2023/11/15 23:43:34;;;;;;;7.70;1.98;;;12.00;99.90;;;;;;10551948;28;20046;-38
2023/11/15 23:48:35;;;;;;;15.38;1.85;;;12.00;99.90;;;;;;10552176;28;20407;-33
2023/11/15 23:53:37;;;;;;;10.50;2.13;;;12.10;99.90;;;;;;10554452;28;20044;-31
2023/11/15 23:58:41;;;;;;;4.90;1.48;;;11.40;99.90;;;;;;10551194;28;20112;-42
